Terminal Aerodrome Forecast
Issued by NWS

Current Version | Previous Version | Graphics & Text | Print | Product List | Glossary On
Versions: 1 2 3 4 5 6 7 8 9 10 11 12 13 14 15 16 17 18 19 20
000
FTUS41 KPBZ 161000 AAA
TAFMGW
TAF AMD
KMGW 161053Z 1611/1706 22004KT P6SM OVC024
     FM161400 35004KT P6SM BKN050
     FM162100 34006KT P6SM SKC=

USA.gov is the U.S. government's official web portal to all federal, state and local government web resources and services.